sensor_id;sensor_type;location;lat;lon;timestamp;temperature;humidity
41882;DHT22;27562;47.524;12.404;2023-04-24T00:00:25;11.30;99.90
41882;DHT22;27562;47.524;12.404;2023-04-24T00:02:51;11.30;99.90
41882;DHT22;27562;47.524;12.404;2023-04-24T00:05:17;11.30;99.90
41882;DHT22;27562;47.524;12.404;2023-04-24T00:07:44;11.20;99.90
41882;DHT22;27562;47.524;12.404;2023-04-24T00:10:11;11.10;99.90
41882;DHT22;27562;47.524;12.404;2023-04-24T00:12:37;11.20;99.90
41882;DHT22;27562;47.524;12.404;2023-04-24T00:15:03;11.10;99.90
41882;DHT22;27562;47.524;12.404;2023-04-24T00:17:29;11.10;99.90
41882;DHT22;27562;47.524;12.404;2023-04-24T00:19:56;11.00;99.90
41882;DHT22;27562;47.524;12.404;2023-04-24T00:22:27;10.90;99.90
41882;DHT22;27562;47.524;12.404;2023-04-24T00:24:53;10.90;99.90
41882;DHT22;27562;47.524;12.404;2023-04-24T00:27:19;10.80;99.90
41882;DHT22;27562;47.524;12.404;2023-04-24T00:29:44;10.80;99.90
41882;DHT22;27562;47.524;12.404;2023-04-24T00:32:10;10.80;99.90
41882;DHT22;27562;47.524;12.404;2023-04-24T00:34:36;10.80;99.90
41882;DHT22;27562;47.524;12.404;2023-04-24T00:37:02;10.80;99.90
41882;DHT22;27562;47.524;12.404;2023-04-24T00:39:28;10.80;99.90
41882;DHT22;27562;47.524;12.404;2023-04-24T00:41:53;10.90;99.90
41882;DHT22;27562;47.524;12.404;2023-04-24T00:44:19;10.80;99.90
41882;DHT22;27562;47.524;12.404;2023-04-24T00:46:46;10.70;99.90
41882;DHT22;27562;47.524;12.404;2023-04-24T00:49:13;10.60;99.90
41882;DHT22;27562;47.524;12.404;2023-04-24T00:51:39;10.60;99.90
41882;DHT22;27562;47.524;12.404;2023-04-24T00:54:06;10.60;99.90
41882;DHT22;27562;47.524;12.404;2023-04-24T00:56:31;10.60;99.90
41882;DHT22;27562;47.524;12.404;2023-04-24T00:58:58;10.60;99.90
41882;DHT22;27562;47.524;12.404;2023-04-24T01:01:24;10.50;99.90
41882;DHT22;27562;47.524;12.404;2023-04-24T01:03:51;10.50;99.90
41882;DHT22;27562;47.524;12.404;2023-04-24T01:06:19;10.50;99.90
41882;DHT22;27562;47.524;12.404;2023-04-24T01:08:46;10.40;99.90
41882;DHT22;27562;47.524;12.404;2023-04-24T01:11:12;10.40;99.90
41882;DHT22;27562;47.524;12.404;2023-04-24T01:13:38;10.40;99.90
41882;DHT22;27562;47.524;12.404;2023-04-24T01:16:05;10.30;99.90
41882;DHT22;27562;47.524;12.404;2023-04-24T01:18:30;10.30;99.90
41882;DHT22;27562;47.524;12.404;2023-04-24T01:21:03;10.20;99.90
41882;DHT22;27562;47.524;12.404;2023-04-24T01:23:29;10.10;99.90
41882;DHT22;27562;47.524;12.404;2023-04-24T01:25:55;10.00;99.90
41882;DHT22;27562;47.524;12.404;2023-04-24T01:28:21;10.00;99.90
41882;DHT22;27562;47.524;12.404;2023-04-24T01:30:47;10.00;99.90
41882;DHT22;27562;47.524;12.404;2023-04-24T01:33:13;10.00;99.90
41882;DHT22;27562;47.524;12.404;2023-04-24T01:35:39;10.00;99.90
41882;DHT22;27562;47.524;12.404;2023-04-24T01:38:05;9.90;99.90
41882;DHT22;27562;47.524;12.404;2023-04-24T01:40:32;9.90;99.90
41882;DHT22;27562;47.524;12.404;2023-04-24T01:42:58;9.90;99.90
41882;DHT22;27562;47.524;12.404;2023-04-24T01:45:24;9.90;99.90
41882;DHT22;27562;47.524;12.404;2023-04-24T01:47:50;9.90;99.90
41882;DHT22;27562;47.524;12.404;2023-04-24T01:50:17;9.90;99.90
41882;DHT22;27562;47.524;12.404;2023-04-24T01:52:43;10.00;99.90
41882;DHT22;27562;47.524;12.404;2023-04-24T01:55:09;10.00;99.90
41882;DHT22;27562;47.524;12.404;2023-04-24T01:57:35;10.00;99.90
41882;DHT22;27562;47.524;12.404;2023-04-24T02:00:02;10.10;99.90
41882;DHT22;27562;47.524;12.404;2023-04-24T02:02:29;10.10;99.90
41882;DHT22;27562;47.524;12.404;2023-04-24T02:04:56;10.10;99.90
41882;DHT22;27562;47.524;12.404;2023-04-24T02:07:21;10.10;99.90
41882;DHT22;27562;47.524;12.404;2023-04-24T02:09:47;10.10;99.90
41882;DHT22;27562;47.524;12.404;2023-04-24T02:12:13;10.20;99.90
41882;DHT22;27562;47.524;12.404;2023-04-24T02:14:39;10.10;99.90
41882;DHT22;27562;47.524;12.404;2023-04-24T02:17:05;10.10;99.90
41882;DHT22;27562;47.524;12.404;2023-04-24T02:19:31;10.10;99.90
41882;DHT22;27562;47.524;12.404;2023-04-24T02:21:56;10.10;99.90
41882;DHT22;27562;47.524;12.404;2023-04-24T02:24:22;10.10;99.90
41882;DHT22;27562;47.524;12.404;2023-04-24T02:26:48;10.10;99.90
41882;DHT22;27562;47.524;12.404;2023-04-24T02:29:14;10.00;99.90
41882;DHT22;27562;47.524;12.404;2023-04-24T02:31:40;10.00;99.90
41882;DHT22;27562;47.524;12.404;2023-04-24T02:34:06;10.00;99.90
41882;DHT22;27562;47.524;12.404;2023-04-24T02:36:31;10.00;99.90
41882;DHT22;27562;47.524;12.404;2023-04-24T02:38:57;9.90;99.90
41882;DHT22;27562;47.524;12.404;2023-04-24T02:41:23;9.90;99.90
41882;DHT22;27562;47.524;12.404;2023-04-24T02:43:48;9.90;99.90
41882;DHT22;27562;47.524;12.404;2023-04-24T02:46:14;9.80;99.90
41882;DHT22;27562;47.524;12.404;2023-04-24T02:48:40;9.80;99.90
41882;DHT22;27562;47.524;12.404;2023-04-24T02:51:06;9.80;99.90
41882;DHT22;27562;47.524;12.404;2023-04-24T02:53:32;9.80;99.90
41882;DHT22;27562;47.524;12.404;2023-04-24T02:55:58;9.70;99.90
41882;DHT22;27562;47.524;12.404;2023-04-24T02:58:24;9.60;99.90
41882;DHT22;27562;47.524;12.404;2023-04-24T03:00:53;9.60;99.90
41882;DHT22;27562;47.524;12.404;2023-04-24T03:03:21;9.50;99.90
41882;DHT22;27562;47.524;12.404;2023-04-24T03:05:46;9.50;99.90
41882;DHT22;27562;47.524;12.404;2023-04-24T03:08:12;9.50;99.90
41882;DHT22;27562;47.524;12.404;2023-04-24T03:10:40;9.50;99.90
41882;DHT22;27562;47.524;12.404;2023-04-24T03:13:05;9.50;99.90
41882;DHT22;27562;47.524;12.404;2023-04-24T03:15:31;9.50;99.90
41882;DHT22;27562;47.524;12.404;2023-04-24T03:17:57;9.40;99.90
41882;DHT22;27562;47.524;12.404;2023-04-24T03:20:23;9.40;99.90
41882;DHT22;27562;47.524;12.404;2023-04-24T03:22:48;9.40;99.90
41882;DHT22;27562;47.524;12.404;2023-04-24T03:25:14;9.40;99.90
41882;DHT22;27562;47.524;12.404;2023-04-24T03:27:40;9.30;99.90
41882;DHT22;27562;47.524;12.404;2023-04-24T03:30:07;9.20;99.90
41882;DHT22;27562;47.524;12.404;2023-04-24T03:32:33;9.20;99.90
41882;DHT22;27562;47.524;12.404;2023-04-24T03:35:00;9.20;99.90
41882;DHT22;27562;47.524;12.404;2023-04-24T03:37:26;9.10;99.90
41882;DHT22;27562;47.524;12.404;2023-04-24T03:39:52;9.10;99.90
41882;DHT22;27562;47.524;12.404;2023-04-24T03:42:18;9.00;99.90
41882;DHT22;27562;47.524;12.404;2023-04-24T03:44:44;8.90;99.90
41882;DHT22;27562;47.524;12.404;2023-04-24T03:47:09;8.80;99.90
41882;DHT22;27562;47.524;12.404;2023-04-24T03:49:35;8.80;99.90
41882;DHT22;27562;47.524;12.404;2023-04-24T03:52:01;8.80;99.90
41882;DHT22;27562;47.524;12.404;2023-04-24T03:54:27;8.70;99.90
41882;DHT22;27562;47.524;12.404;2023-04-24T03:56:53;8.70;99.90
41882;DHT22;27562;47.524;12.404;2023-04-24T03:59:19;8.70;99.90
41882;DHT22;27562;47.524;12.404;2023-04-24T04:01:45;8.60;99.90
41882;DHT22;27562;47.524;12.404;2023-04-24T04:04:11;8.50;99.90
41882;DHT22;27562;47.524;12.404;2023-04-24T04:06:37;8.50;99.90
41882;DHT22;27562;47.524;12.404;2023-04-24T04:09:03;8.40;99.90
41882;DHT22;27562;47.524;12.404;2023-04-24T04:11:29;8.40;99.90
41882;DHT22;27562;47.524;12.404;2023-04-24T04:13:55;8.40;99.90
41882;DHT22;27562;47.524;12.404;2023-04-24T04:16:22;8.30;99.90
41882;DHT22;27562;47.524;12.404;2023-04-24T04:18:48;8.40;99.90
41882;DHT22;27562;47.524;12.404;2023-04-24T04:21:14;8.40;99.90
41882;DHT22;27562;47.524;12.404;2023-04-24T04:23:39;8.40;99.90
41882;DHT22;27562;47.524;12.404;2023-04-24T04:26:06;8.40;99.90
41882;DHT22;27562;47.524;12.404;2023-04-24T04:28:33;8.30;99.90
41882;DHT22;27562;47.524;12.404;2023-04-24T04:30:59;8.30;99.90
41882;DHT22;27562;47.524;12.404;2023-04-24T04:33:25;8.20;99.90
41882;DHT22;27562;47.524;12.404;2023-04-24T04:35:51;8.20;99.90
41882;DHT22;27562;47.524;12.404;2023-04-24T04:38:22;8.20;99.90
41882;DHT22;27562;47.524;12.404;2023-04-24T04:40:48;8.20;99.90
41882;DHT22;27562;47.524;12.404;2023-04-24T04:43:14;8.10;99.90
41882;DHT22;27562;47.524;12.404;2023-04-24T04:45:41;8.10;99.90
41882;DHT22;27562;47.524;12.404;2023-04-24T04:48:08;8.00;99.90
41882;DHT22;27562;47.524;12.404;2023-04-24T04:50:38;8.00;99.90
41882;DHT22;27562;47.524;12.404;2023-04-24T04:53:03;8.00;99.90
41882;DHT22;27562;47.524;12.404;2023-04-24T04:55:29;8.00;99.90
41882;DHT22;27562;47.524;12.404;2023-04-24T04:57:55;8.00;99.90
41882;DHT22;27562;47.524;12.404;2023-04-24T05:00:22;8.00;99.90
41882;DHT22;27562;47.524;12.404;2023-04-24T05:02:50;8.00;99.90
41882;DHT22;27562;47.524;12.404;2023-04-24T05:05:16;8.10;99.90
41882;DHT22;27562;47.524;12.404;2023-04-24T05:07:43;8.20;99.90
41882;DHT22;27562;47.524;12.404;2023-04-24T05:10:09;8.20;99.90
41882;DHT22;27562;47.524;12.404;2023-04-24T05:12:35;8.20;99.90
41882;DHT22;27562;47.524;12.404;2023-04-24T05:15:00;8.20;99.90
41882;DHT22;27562;47.524;12.404;2023-04-24T05:17:26;8.20;99.90
41882;DHT22;27562;47.524;12.404;2023-04-24T05:19:52;8.20;99.90
41882;DHT22;27562;47.524;12.404;2023-04-24T05:22:17;8.20;99.90
41882;DHT22;27562;47.524;12.404;2023-04-24T05:24:46;8.20;99.90
41882;DHT22;27562;47.524;12.404;2023-04-24T05:27:12;8.20;99.90
41882;DHT22;27562;47.524;12.404;2023-04-24T05:29:38;8.20;99.90
41882;DHT22;27562;47.524;12.404;2023-04-24T05:32:03;8.30;99.90
41882;DHT22;27562;47.524;12.404;2023-04-24T05:34:29;8.30;99.90
41882;DHT22;27562;47.524;12.404;2023-04-24T05:36:55;8.30;99.90
41882;DHT22;27562;47.524;12.404;2023-04-24T05:39:21;8.40;99.90
41882;DHT22;27562;47.524;12.404;2023-04-24T05:41:47;8.40;99.90
41882;DHT22;27562;47.524;12.404;2023-04-24T05:44:12;8.40;99.90
41882;DHT22;27562;47.524;12.404;2023-04-24T05:46:38;8.40;99.90
41882;DHT22;27562;47.524;12.404;2023-04-24T05:49:04;8.50;99.90
41882;DHT22;27562;47.524;12.404;2023-04-24T05:51:29;8.50;99.90
41882;DHT22;27562;47.524;12.404;2023-04-24T05:53:57;8.50;99.90
41882;DHT22;27562;47.524;12.404;2023-04-24T05:56:23;8.50;99.90
41882;DHT22;27562;47.524;12.404;2023-04-24T05:58:48;8.50;99.90
41882;DHT22;27562;47.524;12.404;2023-04-24T06:01:14;8.50;99.90
41882;DHT22;27562;47.524;12.404;2023-04-24T06:03:41;8.50;99.90
41882;DHT22;27562;47.524;12.404;2023-04-24T06:06:07;8.40;99.90
41882;DHT22;27562;47.524;12.404;2023-04-24T06:08:34;8.50;99.90
41882;DHT22;27562;47.524;12.404;2023-04-24T06:10:59;8.50;99.90
41882;DHT22;27562;47.524;12.404;2023-04-24T06:13:25;8.50;99.90
41882;DHT22;27562;47.524;12.404;2023-04-24T06:15:52;8.60;99.90
41882;DHT22;27562;47.524;12.404;2023-04-24T06:18:17;8.60;99.90
41882;DHT22;27562;47.524;12.404;2023-04-24T06:20:43;8.60;99.90
41882;DHT22;27562;47.524;12.404;2023-04-24T06:23:09;8.60;99.90
41882;DHT22;27562;47.524;12.404;2023-04-24T06:25:34;8.70;99.90
41882;DHT22;27562;47.524;12.404;2023-04-24T06:28:00;8.70;99.90
41882;DHT22;27562;47.524;12.404;2023-04-24T06:30:27;8.70;99.90
41882;DHT22;27562;47.524;12.404;2023-04-24T06:32:53;8.80;99.90
41882;DHT22;27562;47.524;12.404;2023-04-24T06:35:19;8.80;99.90
41882;DHT22;27562;47.524;12.404;2023-04-24T06:37:45;8.90;99.90
41882;DHT22;27562;47.524;12.404;2023-04-24T06:40:11;9.00;99.90
41882;DHT22;27562;47.524;12.404;2023-04-24T06:42:37;9.00;99.90
41882;DHT22;27562;47.524;12.404;2023-04-24T06:45:03;9.10;99.90
41882;DHT22;27562;47.524;12.404;2023-04-24T06:47:29;9.10;99.90
41882;DHT22;27562;47.524;12.404;2023-04-24T06:49:55;9.20;99.90
41882;DHT22;27562;47.524;12.404;2023-04-24T06:52:21;9.20;99.90
41882;DHT22;27562;47.524;12.404;2023-04-24T06:54:46;9.20;99.90
41882;DHT22;27562;47.524;12.404;2023-04-24T06:57:12;9.20;99.90
41882;DHT22;27562;47.524;12.404;2023-04-24T06:59:38;9.30;99.90
41882;DHT22;27562;47.524;12.404;2023-04-24T07:02:04;9.30;99.90
41882;DHT22;27562;47.524;12.404;2023-04-24T07:04:30;9.30;99.90
41882;DHT22;27562;47.524;12.404;2023-04-24T07:06:56;9.20;99.90
41882;DHT22;27562;47.524;12.404;2023-04-24T07:09:24;9.20;99.90
41882;DHT22;27562;47.524;12.404;2023-04-24T07:11:53;9.10;99.90
41882;DHT22;27562;47.524;12.404;2023-04-24T07:14:20;9.10;99.90
41882;DHT22;27562;47.524;12.404;2023-04-24T07:16:46;9.10;99.90
41882;DHT22;27562;47.524;12.404;2023-04-24T07:19:12;9.10;99.90
41882;DHT22;27562;47.524;12.404;2023-04-24T07:21:38;9.10;99.90
41882;DHT22;27562;47.524;12.404;2023-04-24T07:24:04;9.10;99.90
41882;DHT22;27562;47.524;12.404;2023-04-24T07:26:30;9.10;99.90
41882;DHT22;27562;47.524;12.404;2023-04-24T07:28:56;9.10;99.90
41882;DHT22;27562;47.524;12.404;2023-04-24T07:31:22;9.10;99.90
41882;DHT22;27562;47.524;12.404;2023-04-24T07:33:48;9.10;99.90
41882;DHT22;27562;47.524;12.404;2023-04-24T07:36:14;9.10;99.90
41882;DHT22;27562;47.524;12.404;2023-04-24T07:38:45;9.20;99.90
41882;DHT22;27562;47.524;12.404;2023-04-24T07:41:12;9.20;99.90
41882;DHT22;27562;47.524;12.404;2023-04-24T07:43:38;9.20;99.90
41882;DHT22;27562;47.524;12.404;2023-04-24T07:46:04;9.30;99.90
41882;DHT22;27562;47.524;12.404;2023-04-24T07:48:29;9.40;99.90
41882;DHT22;27562;47.524;12.404;2023-04-24T07:50:55;9.50;99.90
41882;DHT22;27562;47.524;12.404;2023-04-24T07:53:21;9.50;99.90
41882;DHT22;27562;47.524;12.404;2023-04-24T07:55:46;9.50;99.90
41882;DHT22;27562;47.524;12.404;2023-04-24T07:58:12;9.50;99.90
41882;DHT22;27562;47.524;12.404;2023-04-24T08:00:38;9.60;99.90
41882;DHT22;27562;47.524;12.404;2023-04-24T08:03:04;9.60;99.90
41882;DHT22;27562;47.524;12.404;2023-04-24T08:05:30;9.60;99.90
41882;DHT22;27562;47.524;12.404;2023-04-24T08:07:55;9.60;99.90
41882;DHT22;27562;47.524;12.404;2023-04-24T08:10:25;9.60;99.90
41882;DHT22;27562;47.524;12.404;2023-04-24T08:12:50;9.60;99.90
41882;DHT22;27562;47.524;12.404;2023-04-24T08:15:16;9.50;99.90
41882;DHT22;27562;47.524;12.404;2023-04-24T08:17:42;9.50;99.90
41882;DHT22;27562;47.524;12.404;2023-04-24T08:20:10;9.40;99.90
41882;DHT22;27562;47.524;12.404;2023-04-24T08:22:39;9.50;99.90
41882;DHT22;27562;47.524;12.404;2023-04-24T08:25:06;9.50;99.90
41882;DHT22;27562;47.524;12.404;2023-04-24T08:27:32;9.50;99.90
41882;DHT22;27562;47.524;12.404;2023-04-24T08:29:58;9.60;99.90
41882;DHT22;27562;47.524;12.404;2023-04-24T08:32:26;9.60;99.90
41882;DHT22;27562;47.524;12.404;2023-04-24T08:34:56;9.60;99.90
41882;DHT22;27562;47.524;12.404;2023-04-24T08:37:22;9.60;99.90
41882;DHT22;27562;47.524;12.404;2023-04-24T08:39:48;9.60;99.90
41882;DHT22;27562;47.524;12.404;2023-04-24T08:42:15;9.60;99.90
41882;DHT22;27562;47.524;12.404;2023-04-24T08:44:42;9.60;99.90
41882;DHT22;27562;47.524;12.404;2023-04-24T08:47:08;9.60;99.90
41882;DHT22;27562;47.524;12.404;2023-04-24T08:49:36;9.60;99.90
41882;DHT22;27562;47.524;12.404;2023-04-24T08:52:02;9.60;99.90
41882;DHT22;27562;47.524;12.404;2023-04-24T08:54:28;9.60;99.90
41882;DHT22;27562;47.524;12.404;2023-04-24T08:56:58;9.60;99.90
41882;DHT22;27562;47.524;12.404;2023-04-24T08:59:27;9.60;99.90
41882;DHT22;27562;47.524;12.404;2023-04-24T09:01:55;9.60;99.90
41882;DHT22;27562;47.524;12.404;2023-04-24T09:04:22;9.60;99.90
41882;DHT22;27562;47.524;12.404;2023-04-24T09:06:56;9.70;99.90
41882;DHT22;27562;47.524;12.404;2023-04-24T09:09:24;9.60;99.90
41882;DHT22;27562;47.524;12.404;2023-04-24T09:11:51;9.70;99.90
41882;DHT22;27562;47.524;12.404;2023-04-24T09:14:19;9.70;99.90
41882;DHT22;27562;47.524;12.404;2023-04-24T09:16:46;9.60;99.90
41882;DHT22;27562;47.524;12.404;2023-04-24T09:19:12;9.60;99.90
41882;DHT22;27562;47.524;12.404;2023-04-24T09:21:37;9.70;99.90
41882;DHT22;27562;47.524;12.404;2023-04-24T09:24:05;9.80;99.90
41882;DHT22;27562;47.524;12.404;2023-04-24T09:26:35;9.80;99.90
41882;DHT22;27562;47.524;12.404;2023-04-24T09:29:01;9.90;99.90
41882;DHT22;27562;47.524;12.404;2023-04-24T09:31:28;10.00;99.90
41882;DHT22;27562;47.524;12.404;2023-04-24T09:34:03;10.00;99.90
41882;DHT22;27562;47.524;12.404;2023-04-24T09:36:36;10.10;99.90
41882;DHT22;27562;47.524;12.404;2023-04-24T09:39:10;10.10;99.90
41882;DHT22;27562;47.524;12.404;2023-04-24T09:41:57;10.20;99.90
41882;DHT22;27562;47.524;12.404;2023-04-24T09:44:25;10.20;99.90
41882;DHT22;27562;47.524;12.404;2023-04-24T09:46:52;10.20;99.90
41882;DHT22;27562;47.524;12.404;2023-04-24T09:49:29;10.30;99.90
41882;DHT22;27562;47.524;12.404;2023-04-24T09:52:10;10.40;99.90
41882;DHT22;27562;47.524;12.404;2023-04-24T09:54:36;10.50;99.90
41882;DHT22;27562;47.524;12.404;2023-04-24T09:57:02;10.60;99.90
41882;DHT22;27562;47.524;12.404;2023-04-24T09:59:28;10.60;99.90
41882;DHT22;27562;47.524;12.404;2023-04-24T10:01:54;10.60;99.90
41882;DHT22;27562;47.524;12.404;2023-04-24T10:04:21;10.50;99.90
41882;DHT22;27562;47.524;12.404;2023-04-24T10:06:48;10.50;99.90
41882;DHT22;27562;47.524;12.404;2023-04-24T10:09:15;10.50;99.90
41882;DHT22;27562;47.524;12.404;2023-04-24T10:11:43;10.50;99.90
41882;DHT22;27562;47.524;12.404;2023-04-24T10:14:18;10.50;99.90
41882;DHT22;27562;47.524;12.404;2023-04-24T10:16:46;10.50;99.90
41882;DHT22;27562;47.524;12.404;2023-04-24T10:19:13;10.50;99.90
41882;DHT22;27562;47.524;12.404;2023-04-24T10:21:41;10.50;99.90
41882;DHT22;27562;47.524;12.404;2023-04-24T10:24:08;10.50;99.90
41882;DHT22;27562;47.524;12.404;2023-04-24T10:26:35;10.40;99.90
41882;DHT22;27562;47.524;12.404;2023-04-24T10:29:05;10.40;99.90
41882;DHT22;27562;47.524;12.404;2023-04-24T10:31:36;10.40;99.90
41882;DHT22;27562;47.524;12.404;2023-04-24T10:34:02;10.40;99.90
41882;DHT22;27562;47.524;12.404;2023-04-24T10:36:29;10.50;99.90
41882;DHT22;27562;47.524;12.404;2023-04-24T10:39:00;10.50;99.90
41882;DHT22;27562;47.524;12.404;2023-04-24T10:41:26;10.40;99.90
41882;DHT22;27562;47.524;12.404;2023-04-24T10:44:06;10.40;99.90
41882;DHT22;27562;47.524;12.404;2023-04-24T10:46:32;10.40;99.90
41882;DHT22;27562;47.524;12.404;2023-04-24T10:48:58;10.30;99.90
41882;DHT22;27562;47.524;12.404;2023-04-24T10:51:26;10.30;99.90
41882;DHT22;27562;47.524;12.404;2023-04-24T10:59:44;10.40;99.90
41882;DHT22;27562;47.524;12.404;2023-04-24T11:02:10;10.40;99.90
41882;DHT22;27562;47.524;12.404;2023-04-24T11:04:36;10.40;99.90
41882;DHT22;27562;47.524;12.404;2023-04-24T11:07:05;10.40;99.90
41882;DHT22;27562;47.524;12.404;2023-04-24T11:09:31;10.50;99.90
41882;DHT22;27562;47.524;12.404;2023-04-24T11:12:09;10.60;99.90
41882;DHT22;27562;47.524;12.404;2023-04-24T11:17:37;10.70;99.90
41882;DHT22;27562;47.524;12.404;2023-04-24T11:20:09;10.80;99.90
41882;DHT22;27562;47.524;12.404;2023-04-24T11:22:36;10.90;99.90
41882;DHT22;27562;47.524;12.404;2023-04-24T11:25:03;10.90;99.90
41882;DHT22;27562;47.524;12.404;2023-04-24T11:27:31;10.90;99.90
41882;DHT22;27562;47.524;12.404;2023-04-24T11:32:28;11.00;99.90
41882;DHT22;27562;47.524;12.404;2023-04-24T11:35:14;11.10;99.90
41882;DHT22;27562;47.524;12.404;2023-04-24T11:37:49;11.10;99.90
41882;DHT22;27562;47.524;12.404;2023-04-24T11:40:16;11.10;99.90
41882;DHT22;27562;47.524;12.404;2023-04-24T11:42:44;11.10;99.90
41882;DHT22;27562;47.524;12.404;2023-04-24T11:45:22;11.30;99.90
41882;DHT22;27562;47.524;12.404;2023-04-24T11:47:47;11.30;99.90
41882;DHT22;27562;47.524;12.404;2023-04-24T11:50:16;11.30;99.90
41882;DHT22;27562;47.524;12.404;2023-04-24T11:52:46;11.40;99.90
41882;DHT22;27562;47.524;12.404;2023-04-24T11:57:53;11.60;99.90
41882;DHT22;27562;47.524;12.404;2023-04-24T12:00:21;11.80;99.90
41882;DHT22;27562;47.524;12.404;2023-04-24T12:02:48;11.80;99.90
41882;DHT22;27562;47.524;12.404;2023-04-24T12:05:22;11.90;99.90
41882;DHT22;27562;47.524;12.404;2023-04-24T12:07:48;12.00;99.90
41882;DHT22;27562;47.524;12.404;2023-04-24T12:10:19;12.00;99.90
41882;DHT22;27562;47.524;12.404;2023-04-24T12:12:45;12.00;99.90
41882;DHT22;27562;47.524;12.404;2023-04-24T12:15:11;12.00;99.90
41882;DHT22;27562;47.524;12.404;2023-04-24T12:17:41;12.00;99.90
41882;DHT22;27562;47.524;12.404;2023-04-24T12:20:08;11.90;99.90
41882;DHT22;27562;47.524;12.404;2023-04-24T12:22:43;11.90;99.90
41882;DHT22;27562;47.524;12.404;2023-04-24T12:25:13;11.90;99.90
41882;DHT22;27562;47.524;12.404;2023-04-24T12:27:40;11.80;99.90
41882;DHT22;27562;47.524;12.404;2023-04-24T12:30:12;11.80;99.90
41882;DHT22;27562;47.524;12.404;2023-04-24T12:32:43;11.70;99.90
41882;DHT22;27562;47.524;12.404;2023-04-24T12:35:09;11.70;99.90
41882;DHT22;27562;47.524;12.404;2023-04-24T12:37:35;11.70;99.90
41882;DHT22;27562;47.524;12.404;2023-04-24T12:42:34;11.50;99.90
41882;DHT22;27562;47.524;12.404;2023-04-24T12:45:05;11.40;99.90
41882;DHT22;27562;47.524;12.404;2023-04-24T12:47:32;11.30;99.90
41882;DHT22;27562;47.524;12.404;2023-04-24T12:49:58;11.20;99.90
41882;DHT22;27562;47.524;12.404;2023-04-24T12:52:24;11.20;99.90
41882;DHT22;27562;47.524;12.404;2023-04-24T12:54:53;11.10;99.90
41882;DHT22;27562;47.524;12.404;2023-04-24T12:57:19;11.10;99.90
41882;DHT22;27562;47.524;12.404;2023-04-24T12:59:45;11.10;99.90
41882;DHT22;27562;47.524;12.404;2023-04-24T13:02:11;11.10;99.90
41882;DHT22;27562;47.524;12.404;2023-04-24T13:04:37;11.10;99.90
41882;DHT22;27562;47.524;12.404;2023-04-24T13:07:02;10.90;99.90
41882;DHT22;27562;47.524;12.404;2023-04-24T13:09:29;10.90;99.90
41882;DHT22;27562;47.524;12.404;2023-04-24T13:11:55;10.80;99.90
41882;DHT22;27562;47.524;12.404;2023-04-24T13:14:23;10.80;99.90
41882;DHT22;27562;47.524;12.404;2023-04-24T13:16:49;10.80;99.90
41882;DHT22;27562;47.524;12.404;2023-04-24T13:19:15;10.80;99.90
41882;DHT22;27562;47.524;12.404;2023-04-24T13:21:41;10.90;99.90
41882;DHT22;27562;47.524;12.404;2023-04-24T13:24:06;11.00;99.90
41882;DHT22;27562;47.524;12.404;2023-04-24T13:26:33;11.10;99.90
41882;DHT22;27562;47.524;12.404;2023-04-24T13:29:01;11.10;99.90
41882;DHT22;27562;47.524;12.404;2023-04-24T13:31:29;11.20;99.90
41882;DHT22;27562;47.524;12.404;2023-04-24T13:33:56;11.50;99.90
41882;DHT22;27562;47.524;12.404;2023-04-24T13:36:21;11.70;99.90
41882;DHT22;27562;47.524;12.404;2023-04-24T13:38:47;11.90;99.90
41882;DHT22;27562;47.524;12.404;2023-04-24T13:41:12;12.10;99.90
41882;DHT22;27562;47.524;12.404;2023-04-24T13:43:38;12.10;99.90
41882;DHT22;27562;47.524;12.404;2023-04-24T13:46:04;12.20;99.90
41882;DHT22;27562;47.524;12.404;2023-04-24T13:48:30;12.20;99.90
41882;DHT22;27562;47.524;12.404;2023-04-24T13:50:56;12.10;99.90
41882;DHT22;27562;47.524;12.404;2023-04-24T13:53:22;12.10;99.90
41882;DHT22;27562;47.524;12.404;2023-04-24T13:55:48;12.00;99.90
41882;DHT22;27562;47.524;12.404;2023-04-24T13:58:14;11.90;99.90
41882;DHT22;27562;47.524;12.404;2023-04-24T14:00:40;12.00;99.90
41882;DHT22;27562;47.524;12.404;2023-04-24T14:03:06;11.90;99.90
41882;DHT22;27562;47.524;12.404;2023-04-24T14:05:32;11.90;99.90
41882;DHT22;27562;47.524;12.404;2023-04-24T14:07:58;11.80;99.90
41882;DHT22;27562;47.524;12.404;2023-04-24T14:10:24;11.90;99.90
41882;DHT22;27562;47.524;12.404;2023-04-24T14:12:50;11.90;99.90
41882;DHT22;27562;47.524;12.404;2023-04-24T14:15:16;12.00;99.90
41882;DHT22;27562;47.524;12.404;2023-04-24T14:17:42;12.00;99.90
41882;DHT22;27562;47.524;12.404;2023-04-24T14:20:08;12.10;99.90
41882;DHT22;27562;47.524;12.404;2023-04-24T14:22:34;12.10;99.90
41882;DHT22;27562;47.524;12.404;2023-04-24T14:25:00;12.10;99.90
41882;DHT22;27562;47.524;12.404;2023-04-24T14:27:25;12.10;99.90
41882;DHT22;27562;47.524;12.404;2023-04-24T14:29:52;12.10;99.90
41882;DHT22;27562;47.524;12.404;2023-04-24T14:32:18;12.20;99.90
41882;DHT22;27562;47.524;12.404;2023-04-24T14:34:45;12.30;99.90
41882;DHT22;27562;47.524;12.404;2023-04-24T14:37:10;12.40;99.90
41882;DHT22;27562;47.524;12.404;2023-04-24T14:39:36;12.50;99.90
41882;DHT22;27562;47.524;12.404;2023-04-24T14:42:02;12.60;99.90
41882;DHT22;27562;47.524;12.404;2023-04-24T14:44:28;12.60;99.90
41882;DHT22;27562;47.524;12.404;2023-04-24T14:46:53;12.70;99.90
41882;DHT22;27562;47.524;12.404;2023-04-24T14:49:19;12.70;99.90
41882;DHT22;27562;47.524;12.404;2023-04-24T14:51:45;12.70;99.90
41882;DHT22;27562;47.524;12.404;2023-04-24T14:54:11;12.70;99.90
41882;DHT22;27562;47.524;12.404;2023-04-24T14:56:37;12.70;99.90
41882;DHT22;27562;47.524;12.404;2023-04-24T14:59:04;12.70;99.90
41882;DHT22;27562;47.524;12.404;2023-04-24T15:01:30;12.70;99.90
41882;DHT22;27562;47.524;12.404;2023-04-24T15:03:56;12.90;99.90
41882;DHT22;27562;47.524;12.404;2023-04-24T15:06:21;13.00;99.90
41882;DHT22;27562;47.524;12.404;2023-04-24T15:08:48;13.10;99.90
41882;DHT22;27562;47.524;12.404;2023-04-24T15:11:13;13.10;99.90
41882;DHT22;27562;47.524;12.404;2023-04-24T15:13:39;13.20;99.90
41882;DHT22;27562;47.524;12.404;2023-04-24T15:16:05;13.10;99.90
41882;DHT22;27562;47.524;12.404;2023-04-24T15:18:32;13.10;99.90
41882;DHT22;27562;47.524;12.404;2023-04-24T15:20:58;13.10;99.90
41882;DHT22;27562;47.524;12.404;2023-04-24T15:23:23;13.10;99.90
41882;DHT22;27562;47.524;12.404;2023-04-24T15:25:49;13.20;99.90
41882;DHT22;27562;47.524;12.404;2023-04-24T15:28:15;13.30;99.90
41882;DHT22;27562;47.524;12.404;2023-04-24T15:30:41;13.40;99.60
41882;DHT22;27562;47.524;12.404;2023-04-24T15:33:07;13.40;99.90
41882;DHT22;27562;47.524;12.404;2023-04-24T15:35:33;13.50;99.90